Time;durP1;ratioP1;P1;durP2;ratioP2;P2;SDS_P1;SDS_P2;PMS_P1;PMS_P2;Temp;Humidity;BMP_temperature;BMP_pressure;BME280_temperature;BME280_humidity;BME280_pressure;Samples;Min_cycle;Max_cycle;Signal;HPM_P1;HPM_P2
2022/12/30 00:03:53;;;;;;;11.87;8.80;;;7.80;90.00;;;;;;4725540;29;20214;-84
2022/12/30 00:38:54;;;;;;;12.70;8.50;;;7.00;91.60;;;;;;4629547;30;20379;-83
2022/12/30 00:59:05;;;;;;;14.53;8.80;;;6.80;93.00;;;;;;4681213;30;20247;-83
2022/12/30 01:20:01;;;;;;;11.40;8.47;;;6.50;94.30;;;;;;4625256;30;20238;-82
2022/12/30 02:30:54;;;;;;;13.93;9.10;;;6.90;92.30;;;;;;4580463;30;20656;-84
2022/12/30 02:55:52;;;;;;;14.50;10.63;;;6.80;92.30;;;;;;4533158;31;20512;-82
2022/12/30 03:16:35;;;;;;;14.83;10.43;;;6.10;94.80;;;;;;4582201;30;20288;-86
2022/12/30 03:36:41;;;;;;;16.57;11.30;;;5.90;95.00;;;;;;4688085;30;20442;-83
2022/12/30 04:02:18;;;;;;;15.30;10.60;;;6.40;93.10;;;;;;4627897;30;20216;-84
2022/12/30 04:27:36;;;;;;;16.13;10.67;;;6.10;94.80;;;;;;4489495;31;20871;-85
2022/12/30 04:42:38;;;;;;;15.33;10.37;;;6.40;94.30;;;;;;5748262;23;20221;-84
2022/12/30 04:52:51;;;;;;;15.47;9.90;;;6.30;93.70;;;;;;4900590;28;20214;-84
2022/12/30 05:33:29;;;;;;;13.00;9.20;;;6.70;93.10;;;;;;4861249;29;20322;-83
2022/12/30 06:03:44;;;;;;;13.83;9.30;;;6.90;93.00;;;;;;4847511;29;20444;-80
2022/12/30 06:34:24;;;;;;;14.40;9.50;;;7.60;90.90;;;;;;4872459;28;20233;-85
2022/12/30 06:44:16;;;;;;;14.00;9.57;;;7.50;91.20;;;;;;5784689;23;20204;-82
2022/12/30 07:14:05;;;;;;;13.57;9.00;;;7.80;91.20;;;;;;4797316;29;20536;-83
2022/12/30 07:34:44;;;;;;;11.50;8.37;;;8.00;91.00;;;;;;4684712;30;20945;-84
2022/12/30 08:00:12;;;;;;;11.97;7.83;;;8.50;90.20;;;;;;4701824;30;20220;-84
2022/12/30 08:20:33;;;;;;;11.13;7.40;;;8.60;90.20;;;;;;4563499;30;20232;-83
2022/12/30 08:45:59;;;;;;;10.43;6.40;;;8.60;90.50;;;;;;4594972;30;20715;-83
2022/12/30 09:46:15;;;;;;;9.70;5.80;;;8.80;89.30;;;;;;4671705;30;20354;-85
2022/12/30 10:16:58;;;;;;;6.80;4.50;;;8.90;89.30;;;;;;4545276;31;20326;-84
2022/12/30 10:27:20;;;;;;;9.87;4.30;;;9.00;89.20;;;;;;5776208;23;21491;-83
2022/12/30 11:07:29;;;;;;;5.77;3.10;;;9.10;87.80;;;;;;4670530;30;20780;-84
2022/12/30 11:37:38;;;;;;;5.90;3.00;;;9.00;84.40;;;;;;4619303;30;20489;-84
2022/12/30 12:13:24;;;;;;;6.47;2.80;;;8.90;82.90;;;;;;4578211;30;20592;-83
2022/12/30 12:53:39;;;;;;;10.00;3.10;;;8.50;84.10;;;;;;4604061;30;20617;-83
2022/12/30 13:14:10;;;;;;;8.50;2.90;;;8.50;86.00;;;;;;4663736;30;21085;-83
2022/12/30 13:39:53;;;;;;;7.07;3.77;;;8.70;86.90;;;;;;4764330;29;20213;-80
2022/12/30 14:10:23;;;;;;;5.60;3.40;;;8.50;86.20;;;;;;4722383;29;20503;-82
2022/12/30 14:35:18;;;;;;;9.57;4.17;;;7.80;87.70;;;;;;4620831;30;20546;-83
2022/12/30 15:11:09;;;;;;;9.27;4.97;;;7.30;88.00;;;;;;4812358;29;20251;-83
2022/12/30 15:36:25;;;;;;;10.43;5.30;;;6.20;90.50;;;;;;4707687;29;20378;-83
2022/12/30 15:56:43;;;;;;;10.03;6.63;;;4.90;94.10;;;;;;4778661;29;20629;-84
2022/12/30 16:27:14;;;;;;;11.43;6.47;;;4.60;96.50;;;;;;4702538;30;20309;-82
2022/12/30 16:47:23;;;;;;;14.70;7.40;;;4.10;99.60;;;;;;4659055;30;20331;-84
2022/12/30 17:22:28;;;;;;;15.23;7.83;;;4.30;99.90;;;;;;4589599;30;20493;-84
2022/12/30 17:48:22;;;;;;;20.93;8.73;;;4.00;99.90;;;;;;4628539;30;20223;-84
2022/12/30 18:08:32;;;;;;;20.67;11.53;;;3.80;99.90;;;;;;4566616;30;20220;-85
2022/12/30 18:38:24;;;;;;;25.17;13.03;;;2.50;99.90;;;;;;4595313;30;20729;-81
2022/12/30 19:04:25;;;;;;;31.13;17.20;;;1.90;99.90;;;;;;4662704;30;20481;-84
2022/12/30 19:29:37;;;;;;;30.50;18.97;;;1.40;99.90;;;;;;4595444;30;20235;-81
2022/12/30 19:59:56;;;;;;;56.50;30.93;;;0.60;99.90;;;;;;4775181;29;20242;-82
2022/12/30 20:29:53;;;;;;;47.40;28.90;;;0.10;99.90;;;;;;4860198;29;20238;-82
2022/12/30 20:50:27;;;;;;;43.47;27.70;;;0.20;99.90;;;;;;4753216;29;20246;-85
2022/12/30 21:10:59;;;;;;;55.60;29.20;;;0.10;99.90;;;;;;4648289;30;20264;-83
2022/12/30 22:11:25;;;;;;;75.07;44.73;;;-0.30;99.90;;;;;;4651074;30;20606;-83
2022/12/30 23:58:16;;;;;;;83.53;47.80;;;1.80;99.90;;;;;;4854239;28;20261;-84
